Time;durP1;ratioP1;P1;durP2;ratioP2;P2;SDS_P1;SDS_P2;PMS_P1;PMS_P2;Temp;Humidity;BMP_temperature;BMP_pressure;BME280_temperature;BME280_humidity;BME280_pressure;Samples;Min_cycle;Max_cycle;Signal;HPM_P1;HPM_P2
2022/05/30 00:01:22;;;;;;;;;1.75;1.75;;;;;14.57;51.96;100730.22;5033554;28;45615;-82
2022/05/30 00:03:47;;;;;;;;;2.00;1.00;;;;;14.56;52.00;100736.56;5033624;28;45422;-82
2022/05/30 00:06:15;;;;;;;;;1.00;1.00;;;;;14.55;51.94;100737.50;5032935;28;46227;-82
2022/05/30 00:08:41;;;;;;;;;4.00;2.00;;;;;14.50;52.01;100732.44;5034764;28;45484;-82
2022/05/30 00:11:09;;;;;;;;;4.00;4.00;;;;;14.46;52.20;100731.84;5034089;28;45875;-82
2022/05/30 00:13:35;;;;;;;;;3.25;3.00;;;;;14.40;52.38;100728.75;5033785;28;45561;-84
2022/05/30 00:16:09;;;;;;;;;2.25;2.25;;;;;14.29;52.92;100729.53;5033878;28;45829;-84
2022/05/30 00:18:35;;;;;;;;;2.00;2.00;;;;;14.23;52.83;100738.84;5016204;28;45433;-85
2022/05/30 00:21:01;;;;;;;;;1.75;1.75;;;;;14.23;52.88;100736.16;5033028;28;45426;-81
2022/05/30 00:23:26;;;;;;;;;3.50;2.00;;;;;14.20;53.34;100716.78;5035217;28;45324;-84
2022/05/30 00:25:52;;;;;;;;;2.00;2.00;;;;;14.17;53.12;100725.06;5033772;28;46358;-84
2022/05/30 00:28:18;;;;;;;;;2.00;2.00;;;;;14.09;53.41;100714.88;5017614;28;48077;-83
2022/05/30 00:30:46;;;;;;;;;2.00;2.00;;;;;14.07;53.61;100716.81;5034615;28;45483;-83
2022/05/30 00:33:12;;;;;;;;;3.00;3.00;;;;;14.04;53.37;100709.84;5034032;28;45497;-83
2022/05/30 00:35:39;;;;;;;;;2.50;2.25;;;;;14.00;53.61;100712.88;5034779;28;45723;-82
2022/05/30 00:38:04;;;;;;;;;2.75;2.00;;;;;13.99;53.70;100717.34;5033745;28;45598;-82
2022/05/30 00:40:31;;;;;;;;;2.00;2.00;;;;;13.98;54.16;100717.47;5033803;28;45462;-83
2022/05/30 00:43:14;;;;;;;;;3.00;3.00;;;;;13.89;54.33;100716.28;5034000;28;45869;-84
2022/05/30 00:45:40;;;;;;;;;1.25;1.25;;;;;13.84;54.21;100705.06;5033890;28;45405;-83
2022/05/30 00:48:05;;;;;;;;;3.00;3.00;;;;;13.81;54.55;100706.13;5029955;28;45569;-83
2022/05/30 00:50:30;;;;;;;;;4.00;4.00;;;;;13.81;54.52;100706.13;5035004;28;45844;-83
2022/05/30 00:52:56;;;;;;;;;3.00;1.00;;;;;13.81;54.52;100703.47;5033797;28;45393;-82
2022/05/30 00:55:21;;;;;;;;;1.00;1.00;;;;;13.84;54.51;100703.22;5033422;28;45524;-83
2022/05/30 00:57:48;;;;;;;;;3.50;3.00;;;;;13.80;54.76;100696.38;5033723;28;45384;-82
2022/05/30 01:00:21;;;;;;;;;5.50;4.00;;;;;13.82;54.73;100697.13;5030944;28;45571;-82
2022/05/30 01:06:30;;;;;;;;;2.00;2.00;;;;;13.81;54.72;100699.94;5032115;28;45306;-83
2022/05/30 01:08:23;;;;;;;;;2.75;2.75;;;;;13.80;55.01;100698.19;5033861;28;45502;-83
2022/05/30 01:10:49;;;;;;;;;3.00;3.00;;;;;13.78;55.07;100690.31;5014572;28;45542;-83
2022/05/30 01:13:14;;;;;;;;;3.75;3.00;;;;;13.79;54.84;100692.00;5033475;28;45419;-83
2022/05/30 01:15:40;;;;;;;;;2.00;2.00;;;;;13.78;55.17;100673.38;5033354;28;46353;-84
2022/05/30 01:18:21;;;;;;;;;4.00;4.00;;;;;13.80;55.20;100682.16;5033663;28;45522;-83
2022/05/30 01:20:49;;;;;;;;;3.00;3.00;;;;;13.77;55.11;100683.22;5033853;28;45616;-81
2022/05/30 01:23:33;;;;;;;;;3.00;3.00;;;;;13.77;55.32;100685.91;5033911;28;45366;-81
2022/05/30 01:26:40;;;;;;;;;4.25;3.75;;;;;13.72;55.46;100685.38;5015081;28;48454;-81
2022/05/30 01:29:16;;;;;;;;;3.25;3.25;;;;;13.70;55.40;100670.38;5009454;28;46060;-83
2022/05/30 01:31:42;;;;;;;;;4.50;3.50;;;;;13.71;55.33;100664.06;5033214;28;45408;-83
2022/05/30 01:34:07;;;;;;;;;3.25;3.25;;;;;13.72;55.61;100672.00;5034784;28;45368;-82
2022/05/30 01:36:33;;;;;;;;;4.00;4.00;;;;;13.68;55.65;100673.16;5015846;28;48013;-84
2022/05/30 01:38:59;;;;;;;;;3.00;3.00;;;;;13.67;55.73;100666.13;5033718;28;45602;-84
2022/05/30 01:41:24;;;;;;;;;3.75;2.25;;;;;13.67;55.79;100667.94;5033864;28;45404;-84
2022/05/30 01:43:49;;;;;;;;;3.00;3.00;;;;;13.67;56.01;100666.13;5032261;28;50022;-84
2022/05/30 01:46:18;;;;;;;;;2.50;2.50;;;;;13.62;56.13;100665.59;5034677;28;45788;-84
2022/05/30 01:48:45;;;;;;;;;3.50;3.50;;;;;13.61;55.53;100662.06;5034455;28;45381;-85
2022/05/30 01:51:12;;;;;;;;;4.75;3.25;;;;;13.63;56.09;100664.59;5036725;28;45388;-85
2022/05/30 01:53:38;;;;;;;;;4.00;3.75;;;;;13.60;56.36;100667.50;5036032;28;45658;-85
2022/05/30 01:56:04;;;;;;;;;3.00;3.00;;;;;13.60;56.31;100664.84;5036148;28;45432;-85
2022/05/30 01:58:32;;;;;;;;;4.75;3.75;;;;;13.60;56.29;100665.69;5036483;28;45378;-83
2022/05/30 02:01:02;;;;;;;;;4.75;3.25;;;;;13.62;56.72;100671.78;5035637;28;45382;-85
2022/05/30 02:03:28;;;;;;;;;3.25;3.25;;;;;13.58;56.34;100675.63;5035010;28;45592;-82
2022/05/30 02:05:53;;;;;;;;;3.50;3.00;;;;;13.51;56.34;100673.50;5018723;28;46195;-82
2022/05/30 02:08:21;;;;;;;;;3.00;3.00;;;;;13.52;56.41;100684.09;5036410;28;45385;-82
2022/05/30 02:10:48;;;;;;;;;2.25;2.25;;;;;13.49;56.78;100683.44;5035967;28;45477;-82
2022/05/30 02:13:13;;;;;;;;;3.00;3.00;;;;;13.49;56.66;100688.78;5035968;28;45643;-82
2022/05/30 02:18:23;;;;;;;;;3.00;3.00;;;;;13.43;56.96;100679.38;5036276;28;45386;-85
2022/05/30 02:20:48;;;;;;;;;2.50;2.25;;;;;13.37;57.08;100678.00;5036455;28;45955;-85
2022/05/30 02:23:16;;;;;;;;;3.00;3.00;;;;;13.36;56.89;100676.25;5036526;28;45428;-84
2022/05/30 02:25:41;;;;;;;;;3.00;3.00;;;;;13.37;56.95;100677.13;5035757;28;45532;-85
2022/05/30 02:28:06;;;;;;;;;4.00;4.00;;;;;13.34;56.95;100677.34;5017731;28;45661;-85
2022/05/30 02:30:31;;;;;;;;;4.00;4.00;;;;;13.36;57.12;100676.25;5035673;28;50516;-83
2022/05/30 02:36:38;;;;;;;;;3.50;3.50;;;;;13.35;56.83;100676.38;5035893;28;45395;-84
2022/05/30 02:38:26;;;;;;;;;3.00;3.00;;;;;13.34;57.40;100672.84;5034862;28;45680;-84
2022/05/30 02:40:52;;;;;;;;;3.00;3.00;;;;;13.34;57.22;100677.34;5035608;28;45548;-84
2022/05/30 02:43:17;;;;;;;;;2.75;2.75;;;;;13.33;57.30;100683.66;5035432;28;45689;-83
2022/05/30 02:45:42;;;;;;;;;3.50;3.50;;;;;13.24;57.71;100676.22;5014613;28;46481;-83
2022/05/30 02:48:08;;;;;;;;;2.00;2.00;;;;;13.29;57.58;100677.66;5034982;28;45401;-84
2022/05/30 02:50:33;;;;;;;;;3.00;3.00;;;;;13.31;57.39;100685.56;5036665;28;45574;-83
2022/05/30 02:52:59;;;;;;;;;4.25;3.50;;;;;13.30;57.54;100686.50;5035625;28;45493;-83
2022/05/30 02:55:24;;;;;;;;;5.00;5.00;;;;;13.26;57.91;100690.34;5035091;28;45482;-83
2022/05/30 02:57:51;;;;;;;;;3.00;3.00;;;;;13.19;57.89;100684.56;5034154;28;45875;-84
2022/05/30 03:00:16;;;;;;;;;3.25;3.25;;;;;13.13;58.05;100684.97;5035822;28;45566;-84
2022/05/30 03:02:41;;;;;;;;;3.00;3.00;;;;;13.11;58.38;100679.75;5034083;28;45412;-84
2022/05/30 03:05:07;;;;;;;;;4.00;4.00;;;;;13.13;58.26;100679.63;5035216;28;45948;-84
2022/05/30 03:07:32;;;;;;;;;5.00;5.00;;;;;13.06;58.51;100673.84;5035274;28;45472;-84
2022/05/30 03:09:58;;;;;;;;;3.00;3.00;;;;;13.00;58.47;100682.28;5035233;28;45558;-84
2022/05/30 03:12:23;;;;;;;;;4.00;4.00;;;;;13.02;58.51;100676.84;5017793;28;45228;-84
2022/05/30 03:14:50;;;;;;;;;5.25;3.50;;;;;13.00;58.57;100682.28;5035653;28;45400;-83
2022/05/30 03:17:15;;;;;;;;;4.00;4.00;;;;;12.96;58.54;100686.97;5017971;28;45419;-83
2022/05/30 03:19:40;;;;;;;;;4.00;4.00;;;;;12.97;58.80;100682.47;5035946;28;45495;-84
2022/05/30 03:22:06;;;;;;;;;6.00;6.00;;;;;12.93;58.71;100683.63;5036162;28;45353;-83
2022/05/30 03:24:31;;;;;;;;;5.50;4.25;;;;;12.92;58.89;100684.63;5035974;28;53393;-83
2022/05/30 03:26:56;;;;;;;;;4.00;4.00;;;;;12.87;58.90;100684.03;5036342;28;45557;-83
2022/05/30 03:29:23;;;;;;;;;4.75;4.75;;;;;12.86;58.89;100690.34;5018920;28;45312;-83
2022/05/30 03:31:48;;;;;;;;;6.00;6.00;;;;;12.84;59.00;100687.78;5036258;28;45680;-83
2022/05/30 03:34:14;;;;;;;;;3.25;3.00;;;;;12.78;59.04;100686.38;5035722;28;45223;-84
2022/05/30 03:36:39;;;;;;;;;3.75;3.75;;;;;12.77;59.12;100689.13;5046446;28;57594;-84
2022/05/30 03:39:04;;;;;;;;;4.00;4.00;;;;;12.69;59.22;100684.31;5036207;28;45541;-84
2022/05/30 03:41:30;;;;;;;;;4.00;4.00;;;;;12.69;59.15;100684.31;5036731;28;45702;-83
2022/05/30 03:44:00;;;;;;;;;6.75;5.00;;;;;12.68;59.14;100679.09;5026609;28;50000;-83
2022/05/30 03:46:27;;;;;;;;;4.25;4.00;;;;;12.69;58.94;100686.13;5024575;28;45579;-84
2022/05/30 03:48:52;;;;;;;;;4.00;4.00;;;;;12.61;59.07;100683.97;5024787;28;45765;-84
2022/05/30 03:51:18;;;;;;;;;5.00;3.00;;;;;12.62;59.42;100687.47;5020262;28;48074;-83
2022/05/30 03:53:43;;;;;;;;;3.75;3.00;;;;;12.62;59.23;100684.81;5020655;28;51669;-84
2022/05/30 03:56:09;;;;;;;;;5.25;5.00;;;;;12.60;59.13;100694.72;5024325;28;45383;-83
2022/05/30 03:58:34;;;;;;;;;5.50;4.00;;;;;12.56;59.48;100688.75;5024609;28;45413;-84
2022/05/30 04:01:00;;;;;;;;;5.25;5.00;;;;;12.53;59.23;100697.81;5024478;28;45434;-84
2022/05/30 04:03:25;;;;;;;;;6.00;4.25;;;;;12.52;59.36;100704.09;5021218;28;45497;-83
2022/05/30 04:05:50;;;;;;;;;6.25;4.75;;;;;12.54;59.37;100701.34;5020069;28;45309;-83
2022/05/30 04:08:16;;;;;;;;;6.00;4.00;;;;;12.51;59.60;100707.75;5023673;28;45458;-83
2022/05/30 04:10:41;;;;;;;;;5.25;5.25;;;;;12.47;59.49;100702.69;5024610;28;45507;-83
2022/05/30 04:13:08;;;;;;;;;5.75;5.75;;;;;12.49;59.43;100706.13;5024119;28;51047;-84
2022/05/30 04:15:34;;;;;;;;;8.00;6.00;;;;;12.51;59.35;100698.88;5004358;28;45451;-83
2022/05/30 04:17:59;;;;;;;;;2.50;2.50;;;;;12.44;59.49;100706.41;5019817;28;45325;-83
2022/05/30 04:20:25;;;;;;;;;5.25;5.00;;;;;12.50;59.45;100705.16;5004748;28;45596;-84
2022/05/30 04:22:51;;;;;;;;;7.50;4.25;;;;;12.49;59.31;100719.47;5023988;28;45950;-83
2022/05/30 04:25:17;;;;;;;;;5.50;5.50;;;;;12.51;59.53;100712.22;5024059;28;47837;-83
2022/05/30 04:27:42;;;;;;;;;5.00;5.00;;;;;12.46;59.58;100711.66;5005593;28;45532;-82
2022/05/30 04:30:08;;;;;;;;;5.00;5.00;;;;;12.51;59.33;100715.75;5019479;28;45851;-82
2022/05/30 04:32:35;;;;;;;;;5.00;5.00;;;;;12.48;59.77;100713.28;5021303;28;46015;-82
2022/05/30 04:35:01;;;;;;;;;6.25;6.25;;;;;12.43;59.51;100712.69;5023547;28;45380;-84
2022/05/30 04:37:28;;;;;;;;;7.00;7.00;;;;;12.44;59.58;100722.44;5005427;28;45451;-84
2022/05/30 04:39:53;;;;;;;;;5.75;5.75;;;;;12.46;59.74;100725.00;5023263;28;45535;-83
2022/05/30 04:42:18;;;;;;;;;7.25;7.25;;;;;12.44;59.86;100716.25;5019168;28;46040;-82
2022/05/30 04:44:44;;;;;;;;;5.25;5.25;;;;;12.47;59.63;100724.91;5019147;28;45535;-81
2022/05/30 04:47:11;;;;;;;;;5.50;5.25;;;;;12.50;59.61;100719.34;5022959;28;46192;-82
2022/05/30 04:49:37;;;;;;;;;8.25;6.00;;;;;12.47;59.26;100716.91;5023188;28;45533;-82
2022/05/30 04:52:03;;;;;;;;;8.50;7.00;;;;;12.44;59.33;100716.25;5022830;28;46602;-82
2022/05/30 04:54:28;;;;;;;;;6.00;6.00;;;;;12.46;59.66;100728.53;5020294;28;45373;-82
2022/05/30 04:56:53;;;;;;;;;8.00;4.75;;;;;12.48;59.28;100726.63;5018423;28;45490;-81
2022/05/30 04:59:19;;;;;;;;;8.00;7.00;;;;;12.49;59.49;100725.66;5022338;28;45509;-81
2022/05/30 05:01:44;;;;;;;;;8.25;8.25;;;;;12.53;59.38;100732.53;5022801;28;46178;-82
2022/05/30 05:04:11;;;;;;;;;4.25;4.25;;;;;12.51;59.30;100734.44;5022833;28;45436;-81
2022/05/30 05:06:37;;;;;;;;;7.00;6.00;;;;;12.53;59.42;100734.31;5003551;28;45390;-81
2022/05/30 05:09:12;;;;;;;;;7.75;6.00;;;;;12.54;59.38;100736.91;5018199;28;45284;-81
2022/05/30 05:11:37;;;;;;;;;7.75;7.75;;;;;12.53;59.33;100734.31;5019834;28;45428;-82
2022/05/30 05:14:02;;;;;;;;;8.00;5.25;;;;;12.57;59.07;100736.69;5022571;28;45399;-82
2022/05/30 05:16:30;;;;;;;;;6.00;6.00;;;;;12.58;59.13;100743.78;5022817;28;45538;-81
2022/05/30 05:18:56;;;;;;;;;5.00;5.00;;;;;12.60;58.98;100742.81;5022445;28;45509;-81
2022/05/30 05:21:28;;;;;;;;;6.50;6.50;;;;;12.62;59.18;100743.56;5018028;28;46551;-83
2022/05/30 05:23:53;;;;;;;;;6.25;5.00;;;;;12.63;58.93;100740.81;5018228;28;45431;-82
2022/05/30 05:26:20;;;;;;;;;5.25;5.00;;;;;12.65;59.04;100743.34;5022810;28;45295;-83
2022/05/30 05:28:47;;;;;;;;;7.00;7.00;;;;;12.66;58.97;100742.41;5023090;28;45555;-82
2022/05/30 05:31:21;;;;;;;;;5.50;5.50;;;;;12.67;58.86;100742.31;5023224;28;45497;-82
2022/05/30 05:33:46;;;;;;;;;8.75;6.50;;;;;12.66;58.68;100743.28;5022728;28;45337;-82
2022/05/30 05:36:11;;;;;;;;;9.50;5.25;;;;;12.71;58.82;100742.97;5033288;28;45459;-83
2022/05/30 05:38:36;;;;;;;;;6.00;6.00;;;;;12.75;58.75;100740.00;5020122;28;45427;-82
2022/05/30 05:41:07;;;;;;;;;8.00;6.50;;;;;12.73;58.91;100741.91;5004868;28;46116;-82
2022/05/30 05:43:32;;;;;;;;;6.75;5.50;;;;;12.76;58.63;100746.19;5022867;28;45575;-81
2022/05/30 05:45:57;;;;;;;;;8.25;6.25;;;;;12.78;58.71;100746.97;5005256;28;45350;-82
2022/05/30 05:48:23;;;;;;;;;6.25;5.25;;;;;12.79;58.54;100752.22;5022354;28;56513;-82
2022/05/30 05:50:48;;;;;;;;;6.25;6.00;;;;;12.84;58.69;100759.06;5028988;28;55544;-82
2022/05/30 05:53:16;;;;;;;;;6.25;6.25;;;;;12.87;58.65;100756.16;5022364;28;45246;-82
2022/05/30 05:55:41;;;;;;;;;7.50;6.25;;;;;12.91;58.41;100763.03;5023009;28;45265;-82
2022/05/30 05:58:07;;;;;;;;;6.75;5.00;;;;;12.89;58.29;100754.25;5021476;28;45801;-82
2022/05/30 06:00:33;;;;;;;;;6.25;6.00;;;;;12.96;58.06;100758.25;5020392;28;45598;-82
2022/05/30 06:02:58;;;;;;;;;7.25;5.50;;;;;13.00;58.37;100763.28;5018070;28;45397;-82
2022/05/30 06:05:24;;;;;;;;;7.50;5.75;;;;;13.03;58.13;100754.22;5024596;28;46872;-82
2022/05/30 06:07:49;;;;;;;;;7.50;7.50;;;;;13.03;57.87;100756.88;5028392;28;45699;-82
2022/05/30 06:10:15;;;;;;;;;4.25;3.25;;;;;13.05;58.08;100756.78;5030262;28;45448;-83
2022/05/30 06:12:44;;;;;;;;;8.75;7.00;;;;;13.09;57.65;100760.97;5017504;28;45511;-83
2022/05/30 06:15:14;;;;;;;;;6.50;6.50;;;;;13.13;57.52;100766.03;5033637;28;45598;-83
2022/05/30 06:17:44;;;;;;;;;6.00;6.00;;;;;13.16;57.74;100754.28;5031032;28;45377;-83
2022/05/30 06:20:12;;;;;;;;;7.00;5.00;;;;;13.21;57.89;100771.69;5017241;28;46203;-84
2022/05/30 06:22:37;;;;;;;;;7.00;7.00;;;;;13.22;57.83;100761.84;5026774;28;45527;-83
2022/05/30 06:25:03;;;;;;;;;6.00;5.00;;;;;13.28;57.56;100757.97;5022057;28;45322;-86
2022/05/30 06:27:29;;;;;;;;;3.50;3.50;;;;;13.29;57.55;100757.84;5001913;28;45610;-84
2022/05/30 06:29:55;;;;;;;;;6.75;5.00;;;;;13.34;57.30;100758.41;5017500;28;46195;-84
2022/05/30 06:32:21;;;;;;;;;6.25;6.25;;;;;13.39;57.15;100768.78;5033728;28;45515;-84
2022/05/30 06:34:46;;;;;;;;;6.25;5.50;;;;;13.37;57.41;100768.03;5029870;28;45323;-84
2022/05/30 06:37:11;;;;;;;;;7.50;6.00;;;;;13.45;57.01;100770.22;5034414;28;45349;-84
2022/05/30 06:39:38;;;;;;;;;7.00;5.75;;;;;13.48;57.21;100768.16;5031048;28;45407;-85
2022/05/30 06:42:07;;;;;;;;;8.75;5.75;;;;;13.50;56.57;100770.75;5032075;28;45298;-85
2022/05/30 06:44:35;;;;;;;;;5.00;5.00;;;;;13.51;57.12;100770.63;5027877;28;45553;-84
2022/05/30 06:47:01;;;;;;;;;8.00;6.00;;;;;13.60;56.75;100766.47;5035555;28;45492;-81
2022/05/30 06:49:27;;;;;;;;;4.00;4.00;;;;;13.64;56.45;100776.00;5031654;28;45381;-81
2022/05/30 06:51:54;;;;;;;;;6.25;4.00;;;;;13.68;56.60;100769.47;5025471;28;45266;-80
2022/05/30 06:54:20;;;;;;;;;5.75;5.00;;;;;13.70;56.75;100777.41;5034128;28;45495;-80
2022/05/30 06:59:30;;;;;;;;;4.75;4.00;;;;;13.80;56.34;100776.66;5028021;28;45614;-80
2022/05/30 07:01:55;;;;;;;;;5.25;4.25;;;;;13.85;55.87;100762.94;5028433;28;45516;-80
2022/05/30 07:04:21;;;;;;;;;3.25;3.25;;;;;13.89;55.84;100764.47;5028381;28;45399;-80
2022/05/30 07:06:47;;;;;;;;;6.00;4.00;;;;;13.91;55.89;100765.22;5028603;28;45355;-79
2022/05/30 07:09:13;;;;;;;;;5.75;4.00;;;;;13.95;55.45;100761.38;5029103;28;45359;-79
2022/05/30 07:11:39;;;;;;;;;5.75;5.25;;;;;14.00;55.41;100759.22;5026961;28;45374;-79
2022/05/30 07:14:12;;;;;;;;;6.50;6.00;;;;;14.03;55.16;100755.47;5022926;28;45713;-79
2022/05/30 07:16:39;;;;;;;;;5.50;5.50;;;;;14.12;55.47;100764.66;5009879;28;45638;-79
2022/05/30 07:19:07;;;;;;;;;6.00;5.50;;;;;14.14;55.21;100774.31;5008819;28;46908;-79
2022/05/30 07:21:32;;;;;;;;;3.50;3.50;;;;;14.18;55.18;100769.59;5029234;28;45502;-79
2022/05/30 07:23:57;;;;;;;;;2.50;2.50;;;;;14.24;55.18;100770.00;5026790;28;45582;-79
2022/05/30 07:26:23;;;;;;;;;5.00;5.00;;;;;14.29;54.82;100767.00;5025232;28;45583;-78
2022/05/30 07:28:51;;;;;;;;;4.00;4.00;;;;;14.33;54.60;100773.84;5024454;28;45487;-79
2022/05/30 07:31:19;;;;;;;;;7.00;4.25;;;;;14.37;54.73;100774.50;5009184;28;45491;-79
2022/05/30 07:33:46;;;;;;;;;4.00;4.00;;;;;14.38;54.53;100773.50;5009120;28;45468;-79
2022/05/30 07:36:21;;;;;;;;;3.75;3.00;;;;;14.43;54.34;100766.00;5010985;28;45361;-79
2022/05/30 07:38:48;;;;;;;;;7.75;4.25;;;;;14.46;54.38;100755.94;5026510;28;47709;-79
2022/05/30 07:41:14;;;;;;;;;4.50;4.50;;;;;14.51;54.23;100760.13;5028294;28;45503;-79
2022/05/30 07:43:39;;;;;;;;;5.00;4.00;;;;;14.54;53.56;100765.28;5027198;28;45465;-80
2022/05/30 07:46:08;;;;;;;;;3.00;3.00;;;;;14.57;53.56;100762.38;5025271;28;45557;-79
2022/05/30 07:48:33;;;;;;;;;4.50;4.50;;;;;14.61;53.64;100759.34;5035931;28;46270;-79
2022/05/30 07:51:00;;;;;;;;;3.75;3.75;;;;;14.65;51.79;100757.31;5002031;28;45474;-79
2022/05/30 07:53:26;;;;;;;;;5.25;3.50;;;;;14.67;52.17;100763.41;5022864;28;45528;-79
2022/05/30 07:55:51;;;;;;;;;4.25;4.25;;;;;14.68;51.26;100752.59;5024468;28;45298;-79
2022/05/30 07:58:17;;;;;;;;;6.00;4.00;;;;;14.69;51.68;100762.31;5023184;28;46192;-79
2022/05/30 08:00:43;;;;;;;;;8.00;5.50;;;;;14.77;52.40;100759.09;5035644;28;45409;-79
2022/05/30 08:03:11;;;;;;;;;5.75;4.00;;;;;14.80;51.74;100763.38;5019695;28;45567;-79
2022/05/30 08:05:39;;;;;;;;;3.75;3.75;;;;;14.85;51.46;100761.22;5003627;28;45528;-80
2022/05/30 08:08:05;;;;;;;;;3.00;3.00;;;;;14.88;51.38;100764.50;5006284;28;47236;-80
2022/05/30 08:10:31;;;;;;;;;6.00;5.00;;;;;14.92;51.41;100765.16;5024340;28;45479;-80
2022/05/30 08:12:56;;;;;;;;;6.00;4.25;;;;;14.95;50.58;100761.38;5024374;28;45580;-79
2022/05/30 08:15:21;;;;;;;;;4.25;4.25;;;;;14.99;50.64;100769.09;5020487;28;45412;-80
2022/05/30 08:17:47;;;;;;;;;2.75;2.75;;;;;14.95;50.02;100767.59;5025019;28;45390;-79
2022/05/30 08:20:14;;;;;;;;;5.50;5.25;;;;;14.93;49.13;100766.84;5026946;28;45463;-80
2022/05/30 08:22:40;;;;;;;;;4.00;4.00;;;;;14.97;49.65;100771.03;5026775;28;45547;-80
2022/05/30 08:25:14;;;;;;;;;4.00;3.00;;;;;15.01;49.56;100763.59;5027022;28;45464;-79
2022/05/30 08:27:39;;;;;;;;;5.00;4.00;;;;;15.07;49.66;100755.09;5025217;28;45987;-79
2022/05/30 08:30:06;;;;;;;;;4.50;3.00;;;;;15.12;49.40;100753.78;5025864;28;45392;-80
2022/05/30 08:32:38;;;;;;;;;3.00;3.00;;;;;15.19;49.32;100751.50;5008569;28;45716;-79
2022/05/30 08:35:05;;;;;;;;;3.00;3.00;;;;;15.25;49.38;100745.69;5026203;28;45302;-79
2022/05/30 08:37:37;;;;;;;;;4.00;2.00;;;;;15.34;49.19;100746.78;5026003;28;45991;-80
2022/05/30 08:42:52;;;;;;;;;3.00;3.00;;;;;15.41;47.58;100745.34;5034276;28;45522;-78
2022/05/30 08:45:21;;;;;;;;;2.25;2.25;;;;;15.51;48.02;100751.75;5019597;28;45461;-77
2022/05/30 08:48:00;;;;;;;;;2.50;2.50;;;;;15.55;47.20;100747.00;5002634;28;48174;-77
2022/05/30 08:50:41;;;;;;;;;5.75;4.25;;;;;15.62;47.61;100742.88;5022039;28;45427;-77
2022/05/30 08:53:31;;;;;;;;;4.00;3.00;;;;;15.68;47.57;100741.53;5023629;28;45593;-77
2022/05/30 08:56:02;;;;;;;;;7.25;5.75;;;;;15.71;49.42;100738.66;5022284;28;45463;-76
2022/05/30 08:58:46;;;;;;;;;2.00;2.00;;;;;15.80;47.73;100731.69;5023299;28;46185;-78
2022/05/30 09:01:19;;;;;;;;;6.25;2.00;;;;;15.86;47.43;100737.44;5023253;28;45488;-78
2022/05/30 09:04:16;;;;;;;;;2.75;2.75;;;;;15.91;46.95;100737.09;5027741;28;45360;-78
2022/05/30 09:07:02;;;;;;;;;3.75;3.75;;;;;15.99;46.87;100740.00;5026752;28;45601;-78
2022/05/30 09:09:42;;;;;;;;;3.00;3.00;;;;;16.04;45.79;100743.19;5027012;28;45457;-78
2022/05/30 09:12:17;;;;;;;;;2.00;2.00;;;;;16.07;45.57;100745.66;5024979;28;45563;-77
2022/05/30 09:14:56;;;;;;;;;2.50;1.25;;;;;16.11;45.07;100749.78;5031892;28;45555;-78
2022/05/30 09:17:32;;;;;;;;;3.25;2.25;;;;;16.18;44.62;100740.25;5025160;28;45452;-78
2022/05/30 09:20:01;;;;;;;;;1.50;1.50;;;;;16.24;44.65;100741.63;5014489;28;47333;-79
2022/05/30 09:22:27;;;;;;;;;1.75;1.00;;;;;16.25;44.04;100735.25;5024267;28;45579;-77
2022/05/30 09:27:37;;;;;;;;;2.00;2.00;;;;;16.35;43.46;100740.75;5023381;28;45321;-79
2022/05/30 09:30:07;;;;;;;;;2.00;2.00;;;;;16.37;44.43;100734.25;5025436;28;45619;-78
2022/05/30 09:33:00;;;;;;;;;2.25;2.25;;;;;16.42;44.63;100731.22;5005939;28;46453;-78
2022/05/30 09:35:32;;;;;;;;;2.00;2.00;;;;;16.46;44.81;100721.94;5009696;28;45301;-79
2022/05/30 09:38:10;;;;;;;;;1.00;1.00;;;;;16.56;44.55;100724.72;5022652;28;45380;-79
2022/05/30 09:40:42;;;;;;;;;1.50;1.50;;;;;16.63;44.17;100722.41;5021638;28;45441;-79
2022/05/30 09:43:10;;;;;;;;;1.75;1.25;;;;;16.69;44.32;100712.00;5027936;28;45460;-80
2022/05/30 09:45:36;;;;;;;;;2.00;2.00;;;;;16.77;43.89;100705.97;5024394;28;45547;-78
2022/05/30 09:48:14;;;;;;;;;2.00;2.00;;;;;16.88;44.83;100714.03;5026775;28;45516;-76
2022/05/30 09:50:45;;;;;;;;;1.50;1.50;;;;;16.95;44.19;100714.38;5020585;28;45404;-79
2022/05/30 09:53:11;;;;;;;;;2.00;2.00;;;;;16.99;43.49;100708.63;5022562;28;45346;-79
2022/05/30 09:55:51;;;;;;;;;2.50;2.50;;;;;17.07;42.72;100707.13;5022660;28;45420;-79
2022/05/30 09:58:17;;;;;;;;;1.25;1.25;;;;;17.14;43.51;100713.69;4988410;28;45434;-79
2022/05/30 10:00:55;;;;;;;;;1.75;1.75;;;;;17.20;43.29;100705.97;5024048;28;45996;-79
2022/05/30 10:03:28;;;;;;;;;1.00;1.00;;;;;17.28;43.14;100708.00;5018898;28;45805;-80
2022/05/30 10:06:17;;;;;;;;;1.50;1.25;;;;;17.32;41.07;100706.75;5018236;28;45354;-80
2022/05/30 10:08:43;;;;;;;;;1.00;1.00;;;;;17.34;40.97;100701.22;5033896;28;45234;-79
2022/05/30 10:11:09;;;;;;;;;1.75;1.75;;;;;17.37;41.58;100709.06;5026285;28;45265;-79
2022/05/30 10:13:41;;;;;;;;;2.75;1.00;;;;;17.44;41.63;100703.00;5025847;28;45274;-79
2022/05/30 10:16:13;;;;;;;;;2.50;0.50;;;;;17.50;41.76;100703.47;5026162;28;45411;-80
2022/05/30 10:19:01;;;;;;;;;1.25;1.25;;;;;17.60;40.79;100699.00;5022367;28;45574;-79
2022/05/30 10:28:16;;;;;;;;;1.75;1.75;;;;;17.82;41.26;100698.00;5024288;28;45432;-79
2022/05/30 10:30:51;;;;;;;;;1.25;1.00;;;;;17.86;39.88;100696.75;5008960;28;45579;-79
2022/05/30 10:33:37;;;;;;;;;4.00;2.25;;;;;17.88;39.14;100694.78;5028657;28;45436;-79
2022/05/30 10:36:30;;;;;;;;;1.00;1.00;;;;;17.76;39.15;100699.38;5008612;28;45554;-79
2022/05/30 10:39:07;;;;;;;;;1.00;1.00;;;;;17.84;40.35;100706.81;5027767;28;45664;-79
2022/05/30 10:41:43;;;;;;;;;0.75;0.75;;;;;17.90;41.30;100708.13;5024994;28;45506;-78
2022/05/30 10:44:18;;;;;;;;;59.75;48.25;;;;;17.99;40.62;100702.78;5028007;28;48012;-78
2022/05/30 10:47:09;;;;;;;;;6.00;6.00;;;;;18.13;39.61;100704.25;5028114;28;45447;-78
2022/05/30 10:49:39;;;;;;;;;1.75;1.75;;;;;18.27;39.40;100697.63;4969361;28;45429;-77
2022/05/30 10:52:15;;;;;;;;;2.00;1.75;;;;;18.36;40.00;100701.34;4971708;28;45295;-78
2022/05/30 10:54:54;;;;;;;;;1.75;1.75;;;;;18.43;38.86;100710.59;4963303;28;45485;-78
2022/05/30 10:57:22;;;;;;;;;1.00;1.00;;;;;18.53;39.23;100706.94;4967141;28;46388;-77
2022/05/30 11:00:06;;;;;;;;;2.00;2.00;;;;;18.61;38.54;100711.63;4965123;28;45403;-78
2022/05/30 11:02:58;;;;;;;;;3.50;3.50;;;;;18.71;38.86;100699.03;4969293;28;46662;-78
2022/05/30 11:05:37;;;;;;;;;2.50;2.00;;;;;18.82;39.31;100695.38;4973698;28;46138;-79
2022/05/30 11:08:18;;;;;;;;;4.00;2.00;;;;;18.89;38.56;100699.22;4963956;28;45449;-79
2022/05/30 11:10:56;;;;;;;;;1.00;1.00;;;;;18.91;37.73;100707.16;4963373;28;45598;-79
2022/05/30 11:13:40;;;;;;;;;2.00;2.00;;;;;18.92;37.56;100700.75;4964972;28;45435;-78
2022/05/30 11:16:40;;;;;;;;;2.00;2.00;;;;;18.88;37.63;100692.13;4953749;28;48303;-77
2022/05/30 11:19:20;;;;;;;;;4.00;3.00;;;;;18.94;37.70;100691.53;4968171;28;45467;-79
2022/05/30 11:22:13;;;;;;;;;4.00;2.00;;;;;19.00;37.91;100698.22;4968307;28;45701;-80
2022/05/30 11:24:38;;;;;;;;;2.25;1.00;;;;;19.05;37.29;100697.78;4963228;28;45491;-82
2022/05/30 11:27:21;;;;;;;;;4.00;3.00;;;;;19.05;37.17;100704.06;5000413;28;45699;-81
2022/05/30 11:30:15;;;;;;;;;2.75;2.75;;;;;19.03;37.69;100694.41;5024463;28;45508;-80
2022/05/30 11:33:02;;;;;;;;;2.00;2.00;;;;;19.05;37.57;100695.06;5028871;28;45491;-81
2022/05/30 11:35:43;;;;;;;;;1.00;1.00;;;;;19.08;37.85;100690.25;5026297;28;45341;-79
2022/05/30 11:38:17;;;;;;;;;11.25;11.25;;;;;19.10;37.11;100685.59;5006329;28;46851;-80
2022/05/30 11:40:52;;;;;;;;;10.00;10.00;;;;;19.20;37.68;100682.03;5009197;28;45417;-81
2022/05/30 11:43:26;;;;;;;;;3.00;3.00;;;;;19.29;37.29;100678.44;5030296;28;45404;-80
2022/05/30 11:46:01;;;;;;;;;2.00;1.00;;;;;19.38;36.44;100672.19;5024248;28;45776;-80
2022/05/30 11:48:39;;;;;;;;;3.00;2.00;;;;;19.55;36.84;100676.84;5000856;28;48074;-80
2022/05/30 11:51:34;;;;;;;;;1.00;1.00;;;;;19.63;36.74;100681.53;5011951;28;46707;-80
2022/05/30 11:54:14;;;;;;;;;3.25;2.00;;;;;19.68;36.35;100676.56;5019740;28;45310;-80
2022/05/30 11:56:55;;;;;;;;;1.00;1.00;;;;;19.71;36.21;100684.38;5026956;28;45453;-79
2022/05/30 11:59:43;;;;;;;;;1.00;1.00;;;;;19.71;35.70;100680.81;5024091;28;46916;-79